Time,TemperatureF,DewpointF,PressureIn,WindDirection,WindDirectionDegrees,WindSpeedMPH,WindSpeedGustMPH,Humidity,HourlyPrecipIn,Conditions,Clouds,dailyrainin,SoftwareType,DateUTC
2013-12-11 00:00:00,21.2,-0.4,29.93,North,0,0.0,0.0,38,0.00,,OVC032,0.00,VWS V13.01,2013-12-11 05:00:00,
2013-12-11 00:01:00,21.2,-0.4,29.93,North,0,0.0,0.0,38,0.00,,CLR,0.00,VWS V13.01,2013-12-11 05:01:00,
2013-12-11 00:02:00,21.4,-0.8,29.93,North,0,0.0,0.0,37,0.00,,CLR,0.00,VWS V13.01,2013-12-11 05:02:00,
2013-12-11 00:03:00,21.4,-0.8,29.93,North,0,0.0,0.0,37,0.00,,CLR,0.00,VWS V13.01,2013-12-11 05:03:00,
2013-12-11 00:08:00,21.6,-0.1,29.93,North,0,0.0,0.0,38,0.00,,CLR,0.00,VWS V13.01,2013-12-11 05:08:00,
2013-12-11 00:10:00,21.6,-0.1,29.93,North,0,0.0,0.0,38,0.00,,OVC032,0.00,VWS V13.01,2013-12-11 05:10:00,
2013-12-11 00:13:00,21.7,0.1,29.93,North,0,0.0,0.0,38,0.00,,CLR,0.00,VWS V13.01,2013-12-11 05:13:00,
2013-12-11 00:18:00,21.9,0.2,29.93,North,0,0.0,0.0,38,0.00,,CLR,0.00,VWS V13.01,2013-12-11 05:18:00,
2013-12-11 00:20:00,21.9,0.2,29.93,North,0,0.0,0.0,38,0.00,,OVC032,0.00,VWS V13.01,2013-12-11 05:20:00,
2013-12-11 00:23:00,22.1,0.4,29.93,North,0,0.0,0.0,38,0.00,,CLR,0.00,VWS V13.01,2013-12-11 05:23:00,
2013-12-11 00:28:00,22.1,0.4,29.93,North,0,0.0,0.0,38,0.00,,CLR,0.00,VWS V13.01,2013-12-11 05:28:00,
2013-12-11 00:30:00,22.1,0.4,29.93,North,0,0.0,0.0,38,0.00,,OVC032,0.00,VWS V13.01,2013-12-11 05:30:00,
2013-12-11 00:33:00,22.1,0.4,29.93,North,0,0.0,0.0,38,0.00,,CLR,0.00,VWS V13.01,2013-12-11 05:33:00,
2013-12-11 00:38:00,22.1,0.4,29.93,North,0,0.0,0.0,38,0.00,,CLR,0.00,VWS V13.01,2013-12-11 05:38:00,
2013-12-11 00:40:00,21.9,0.2,29.93,North,0,0.0,0.0,38,0.00,,OVC032,0.00,VWS V13.01,2013-12-11 05:40:00,
2013-12-11 00:43:00,21.9,0.2,29.93,North,0,0.0,0.0,38,0.00,,SCT044,0.00,VWS V13.01,2013-12-11 05:43:00,
2013-12-11 00:48:00,22.1,0.9,29.93,North,0,0.0,0.0,39,0.00,,SCT044,0.00,VWS V13.01,2013-12-11 05:48:00,
2013-12-11 00:50:00,22.1,0.9,29.93,North,0,0.0,0.0,39,0.00,,OVC032,0.00,VWS V13.01,2013-12-11 05:50:00,
2013-12-11 00:53:00,22.1,0.9,29.93,North,0,0.0,0.0,39,0.00,,SCT044,0.00,VWS V13.01,2013-12-11 05:53:00,
2013-12-11 00:58:00,22.3,1.6,29.93,North,0,0.0,0.0,40,0.00,,SCT044,0.00,VWS V13.01,2013-12-11 05:58:00,
2013-12-11 01:00:00,22.3,1.6,29.93,North,0,0.0,0.0,40,0.00,,OVC032,0.00,VWS V13.01,2013-12-11 06:00:00,
2013-12-11 01:03:00,22.3,1.6,29.93,North,0,0.0,0.0,40,0.00,,BKN041,0.00,VWS V13.01,2013-12-11 06:03:00,
2013-12-11 01:08:00,22.1,1.5,29.93,North,0,0.0,0.0,40,0.00,,BKN041,0.00,VWS V13.01,2013-12-11 06:08:00,
2013-12-11 01:10:00,22.1,1.5,29.93,North,0,0.0,0.0,40,0.00,,OVC032,0.00,VWS V13.01,2013-12-11 06:10:00,
2013-12-11 01:13:00,22.1,1.5,29.93,North,0,0.0,0.0,40,0.00,,BKN041,0.00,VWS V13.01,2013-12-11 06:13:00,
2013-12-11 01:18:00,22.1,1.5,29.93,North,0,0.0,0.0,40,0.00,,BKN041,0.00,VWS V13.01,2013-12-11 06:18:00,
2013-12-11 01:20:00,22.1,2.0,29.93,North,0,0.0,0.0,41,0.00,,OVC032,0.00,VWS V13.01,2013-12-11 06:20:00,
2013-12-11 01:23:00,22.1,2.0,29.93,North,0,0.0,0.0,41,0.00,,BKN041,0.00,VWS V13.01,2013-12-11 06:23:00,
2013-12-11 01:28:00,22.1,2.5,29.93,North,0,0.0,0.0,42,0.00,,BKN041,0.00,VWS V13.01,2013-12-11 06:28:00,
2013-12-11 01:30:00,22.1,2.5,29.93,North,0,0.0,0.0,42,0.00,,OVC032,0.00,VWS V13.01,2013-12-11 06:30:00,
2013-12-11 01:33:00,22.1,2.5,29.93,North,0,0.0,0.0,42,0.00,,BKN041,0.00,VWS V13.01,2013-12-11 06:33:00,
2013-12-11 01:38:00,22.1,2.5,29.93,North,0,0.0,0.0,42,0.00,,BKN041,0.00,VWS V13.01,2013-12-11 06:38:00,
2013-12-11 01:40:00,22.1,2.5,29.96,North,0,0.0,0.0,42,0.00,,OVC032,0.00,VWS V13.01,2013-12-11 06:40:00,
2013-12-11 01:43:00,22.3,2.7,29.96,North,0,0.0,0.0,42,0.00,,OVC025,0.00,VWS V13.01,2013-12-11 06:43:00,
2013-12-11 01:48:00,22.3,2.7,29.96,North,0,0.0,0.0,42,0.00,,OVC025,0.00,VWS V13.01,2013-12-11 06:48:00,
2013-12-11 01:50:00,22.3,2.7,29.96,North,0,0.0,0.0,42,0.00,,OVC032,0.00,VWS V13.01,2013-12-11 06:50:00,
2013-12-11 01:53:00,22.5,2.8,29.96,North,0,0.0,0.0,42,0.00,,OVC025,0.00,VWS V13.01,2013-12-11 06:53:00,
2013-12-11 01:58:00,22.5,2.8,29.96,North,0,0.0,0.0,42,0.00,,OVC025,0.00,VWS V13.01,2013-12-11 06:58:00,
2013-12-11 02:00:00,22.5,2.8,29.96,North,0,0.0,0.0,42,0.00,,OVC032,0.00,VWS V13.01,2013-12-11 07:00:00,
2013-12-11 02:03:00,22.5,2.8,29.96,North,0,0.0,0.0,42,0.00,,OVC033,0.00,VWS V13.01,2013-12-11 07:03:00,
2013-12-11 02:08:00,22.5,2.8,29.96,North,0,0.0,0.0,42,0.00,,OVC033,0.00,VWS V13.01,2013-12-11 07:08:00,
2013-12-11 02:10:00,22.5,2.8,29.96,North,0,0.0,0.0,42,0.00,,OVC032,0.00,VWS V13.01,2013-12-11 07:10:00,
2013-12-11 02:13:00,22.6,3.0,29.96,North,0,0.0,0.0,42,0.00,,OVC033,0.00,VWS V13.01,2013-12-11 07:13:00,
2013-12-11 02:18:00,22.6,3.0,29.96,North,0,0.0,0.0,42,0.00,,OVC033,0.00,VWS V13.01,2013-12-11 07:18:00,
2013-12-11 02:20:00,22.8,3.2,29.96,North,0,0.0,0.0,42,0.00,,OVC032,0.00,VWS V13.01,2013-12-11 07:20:00,
2013-12-11 02:23:00,22.8,3.2,29.96,North,0,0.0,0.0,42,0.00,,OVC033,0.00,VWS V13.01,2013-12-11 07:23:00,
2013-12-11 02:28:00,22.8,3.2,29.96,North,0,0.0,0.0,42,0.00,,OVC033,0.00,VWS V13.01,2013-12-11 07:28:00,
2013-12-11 02:30:00,22.8,3.2,29.96,North,0,0.0,0.0,42,0.00,,OVC032,0.00,VWS V13.01,2013-12-11 07:30:00,
2013-12-11 02:33:00,22.8,3.2,29.96,North,0,0.0,0.0,42,0.00,,OVC033,0.00,VWS V13.01,2013-12-11 07:33:00,
2013-12-11 02:38:00,22.8,3.2,29.96,North,0,0.0,0.0,42,0.00,,OVC033,0.00,VWS V13.01,2013-12-11 07:38:00,
2013-12-11 02:40:00,22.8,3.2,29.99,North,0,0.0,0.0,42,0.00,,OVC032,0.00,VWS V13.01,2013-12-11 07:40:00,
2013-12-11 02:43:00,22.8,3.2,29.99,North,0,0.0,0.0,42,0.00,,OVC034,0.00,VWS V13.01,2013-12-11 07:43:00,
2013-12-11 02:48:00,22.8,2.7,29.99,North,0,0.0,0.0,41,0.00,,OVC034,0.00,VWS V13.01,2013-12-11 07:48:00,
2013-12-11 02:50:00,22.8,2.7,29.99,North,0,0.0,0.0,41,0.00,,OVC032,0.00,VWS V13.01,2013-12-11 07:50:00,
2013-12-11 02:53:00,22.8,2.7,29.99,North,0,0.0,0.0,41,0.00,,OVC034,0.00,VWS V13.01,2013-12-11 07:53:00,
2013-12-11 02:58:00,22.8,2.7,29.96,North,0,0.0,0.0,41,0.00,,OVC034,0.00,VWS V13.01,2013-12-11 07:58:00,
2013-12-11 03:00:00,22.8,2.7,29.96,North,0,0.0,0.0,41,0.00,,OVC032,0.00,VWS V13.01,2013-12-11 08:00:00,
2013-12-11 03:03:00,22.8,2.7,29.96,North,0,0.0,0.0,41,0.00,,OVC032,0.00,VWS V13.01,2013-12-11 08:03:00,
2013-12-11 03:11:00,22.8,2.7,29.99,North,0,0.0,0.0,41,0.00,,OVC032,0.00,VWS V13.01,2013-12-11 08:11:00,
2013-12-11 03:16:00,22.6,2.5,29.99,North,0,0.0,0.0,41,0.00,,OVC032,0.00,VWS V13.01,2013-12-11 08:16:00,
2013-12-11 03:21:00,22.6,2.5,29.99,North,0,0.0,0.0,41,0.00,,OVC032,0.00,VWS V13.01,2013-12-11 08:21:00,
2013-12-11 03:26:00,22.6,2.0,29.99,North,0,0.0,0.0,40,0.00,,OVC032,0.00,VWS V13.01,2013-12-11 08:26:00,
2013-12-11 03:31:00,22.8,2.1,29.99,North,0,0.0,0.0,40,0.00,,OVC032,0.00,VWS V13.01,2013-12-11 08:31:00,
2013-12-11 03:36:00,22.8,2.1,29.99,North,0,0.0,0.0,40,0.00,,OVC032,0.00,VWS V13.01,2013-12-11 08:36:00,
2013-12-11 03:41:00,22.6,1.4,29.99,North,0,0.0,0.0,39,0.00,,OVC046,0.00,VWS V13.01,2013-12-11 08:41:00,
2013-12-11 03:46:00,22.6,1.4,29.99,North,0,0.0,0.0,39,0.00,,OVC046,0.00,VWS V13.01,2013-12-11 08:46:00,
2013-12-11 03:51:00,22.5,1.3,29.99,North,0,0.0,0.0,39,0.00,,OVC046,0.00,VWS V13.01,2013-12-11 08:51:00,
2013-12-11 03:56:00,22.3,0.5,29.99,North,0,0.0,0.0,38,0.00,,OVC046,0.00,VWS V13.01,2013-12-11 08:56:00,
2013-12-11 04:01:00,22.3,0.0,29.99,North,0,0.0,0.0,37,0.00,,OVC044,0.00,VWS V13.01,2013-12-11 09:01:00,
2013-12-11 04:06:00,22.3,0.0,29.99,North,0,0.0,0.0,37,0.00,,OVC044,0.00,VWS V13.01,2013-12-11 09:06:00,
2013-12-11 04:11:00,21.9,-0.9,29.99,North,0,0.0,0.0,36,0.00,,OVC044,0.00,VWS V13.01,2013-12-11 09:11:00,
2013-12-11 04:16:00,21.9,-0.9,29.99,North,0,0.0,0.0,36,0.00,,OVC044,0.00,VWS V13.01,2013-12-11 09:16:00,
2013-12-11 04:21:00,21.7,-1.1,29.99,North,0,0.0,0.0,36,0.00,,OVC044,0.00,VWS V13.01,2013-12-11 09:21:00,
2013-12-11 04:26:00,21.6,-1.2,29.99,North,0,0.0,0.0,36,0.00,,OVC044,0.00,VWS V13.01,2013-12-11 09:26:00,
2013-12-11 04:31:00,21.4,-1.4,29.99,North,0,0.0,0.0,36,0.00,,OVC044,0.00,VWS V13.01,2013-12-11 09:31:00,
2013-12-11 04:36:00,21.2,-1.6,29.99,North,0,0.0,0.0,36,0.00,,OVC044,0.00,VWS V13.01,2013-12-11 09:36:00,
2013-12-11 04:41:00,21.2,-1.6,30.02,North,0,0.0,0.0,36,0.00,,SCT042,0.00,VWS V13.01,2013-12-11 09:41:00,
2013-12-11 04:46:00,21.0,-1.7,30.02,North,0,0.0,0.0,36,0.00,,SCT042,0.00,VWS V13.01,2013-12-11 09:46:00,
2013-12-11 04:51:00,21.0,-1.7,30.02,North,0,0.0,0.0,36,0.00,,SCT042,0.00,VWS V13.01,2013-12-11 09:51:00,
2013-12-11 04:56:00,21.0,-2.3,30.02,North,0,0.0,0.0,35,0.00,,SCT042,0.00,VWS V13.01,2013-12-11 09:56:00,
2013-12-11 05:01:00,20.8,-2.5,30.02,North,0,0.0,0.0,35,0.00,,SCT042,0.00,VWS V13.01,2013-12-11 10:01:00,
2013-12-11 05:06:00,20.7,-2.7,30.02,North,0,0.0,0.0,35,0.00,,SCT042,0.00,VWS V13.01,2013-12-11 10:06:00,
2013-12-11 05:11:00,20.7,-2.7,30.02,North,0,0.0,0.0,35,0.00,,SCT042,0.00,VWS V13.01,2013-12-11 10:11:00,
2013-12-11 05:16:00,20.5,-2.8,30.02,North,0,0.0,0.0,35,0.00,,SCT042,0.00,VWS V13.01,2013-12-11 10:16:00,
2013-12-11 05:21:00,20.5,-2.8,30.02,North,0,0.0,0.0,35,0.00,,SCT042,0.00,VWS V13.01,2013-12-11 10:21:00,
2013-12-11 05:26:00,20.3,-3.0,30.02,North,0,0.0,0.0,35,0.00,,SCT042,0.00,VWS V13.01,2013-12-11 10:26:00,
2013-12-11 05:31:00,20.3,-3.0,30.02,North,0,0.0,0.0,35,0.00,,SCT042,0.00,VWS V13.01,2013-12-11 10:31:00,
2013-12-11 05:36:00,20.3,-3.0,30.02,North,0,0.0,0.0,35,0.00,,SCT042,0.00,VWS V13.01,2013-12-11 10:36:00,
2013-12-11 05:41:00,20.3,-3.6,30.02,North,0,0.0,0.0,34,0.00,,FEW044,0.00,VWS V13.01,2013-12-11 10:41:00,
2013-12-11 05:46:00,20.3,-3.6,30.02,North,0,0.0,0.0,34,0.00,,FEW044,0.00,VWS V13.01,2013-12-11 10:46:00,
2013-12-11 05:51:00,20.3,-3.6,30.02,North,0,0.0,0.0,34,0.00,,FEW044,0.00,VWS V13.01,2013-12-11 10:51:00,
2013-12-11 05:56:00,20.5,-3.4,30.02,North,0,0.0,0.0,34,0.00,,FEW044,0.00,VWS V13.01,2013-12-11 10:56:00,
2013-12-11 06:01:00,20.5,-3.4,30.02,North,0,0.0,0.0,34,0.00,,CLR,0.00,VWS V13.01,2013-12-11 11:01:00,
2013-12-11 06:06:00,20.3,-3.6,30.02,North,0,0.0,0.0,34,0.00,,CLR,0.00,VWS V13.01,2013-12-11 11:06:00,
2013-12-11 06:11:00,20.3,-3.6,30.05,North,0,0.0,0.0,34,0.00,,CLR,0.00,VWS V13.01,2013-12-11 11:11:00,
2013-12-11 06:16:00,20.3,-3.6,30.05,North,0,0.0,0.0,34,0.00,,CLR,0.00,VWS V13.01,2013-12-11 11:16:00,
2013-12-11 06:21:00,20.3,-3.6,30.05,North,0,0.0,0.0,34,0.00,,CLR,0.00,VWS V13.01,2013-12-11 11:21:00,
2013-12-11 06:26:00,20.1,-3.7,30.05,North,0,0.0,0.0,34,0.00,,CLR,0.00,VWS V13.01,2013-12-11 11:26:00,
2013-12-11 06:31:00,20.1,-3.7,30.05,North,0,0.0,0.0,34,0.00,,CLR,0.00,VWS V13.01,2013-12-11 11:31:00,
2013-12-11 06:36:00,20.1,-3.7,30.05,North,0,0.0,0.0,34,0.00,,CLR,0.00,VWS V13.01,2013-12-11 11:36:00,
2013-12-11 06:41:00,20.3,-3.6,30.05,North,0,0.0,0.0,34,0.00,,CLR,0.00,VWS V13.01,2013-12-11 11:41:00,
2013-12-11 06:46:00,20.1,-3.7,30.05,North,0,0.0,0.0,34,0.00,,CLR,0.00,VWS V13.01,2013-12-11 11:46:00,
2013-12-11 06:51:00,19.9,-3.9,30.05,North,0,0.0,0.0,34,0.00,,CLR,0.00,VWS V13.01,2013-12-11 11:51:00,
2013-12-11 06:56:00,19.9,-3.9,30.05,North,0,0.0,0.0,34,0.00,,CLR,0.00,VWS V13.01,2013-12-11 11:56:00,
2013-12-11 07:01:00,19.8,-4.1,30.05,North,0,0.0,0.0,34,0.00,,CLR,0.00,VWS V13.01,2013-12-11 12:01:00,
2013-12-11 07:06:00,19.6,-4.2,30.05,North,0,0.0,0.0,34,0.00,,CLR,0.00,VWS V13.01,2013-12-11 12:06:00,
2013-12-11 07:11:00,19.8,-4.1,30.08,North,0,0.0,0.0,34,0.00,,CLR,0.00,VWS V13.01,2013-12-11 12:11:00,
2013-12-11 07:16:00,19.9,-3.9,30.08,North,0,0.0,0.0,34,0.00,,CLR,0.00,VWS V13.01,2013-12-11 12:16:00,
2013-12-11 07:21:00,19.9,-3.9,30.08,North,0,0.0,0.0,34,0.00,,CLR,0.00,VWS V13.01,2013-12-11 12:21:00,
2013-12-11 07:26:00,19.9,-3.9,30.08,North,0,0.0,0.0,34,0.00,,CLR,0.00,VWS V13.01,2013-12-11 12:26:00,
2013-12-11 07:31:00,19.9,-3.9,30.08,North,0,0.0,0.0,34,0.00,,CLR,0.00,VWS V13.01,2013-12-11 12:31:00,
2013-12-11 07:36:00,20.3,-3.6,30.08,North,0,0.0,0.0,34,0.00,,CLR,0.00,VWS V13.01,2013-12-11 12:36:00,
2013-12-11 07:41:00,20.3,-4.2,30.08,North,0,0.0,0.0,33,0.00,,CLR,0.00,VWS V13.01,2013-12-11 12:41:00,
2013-12-11 07:46:00,20.5,-4.0,30.08,North,0,0.0,0.0,33,0.00,,CLR,0.00,VWS V13.01,2013-12-11 12:46:00,
2013-12-11 07:51:00,20.5,-4.0,30.08,North,0,0.0,0.0,33,0.00,,CLR,0.00,VWS V13.01,2013-12-11 12:51:00,
2013-12-11 07:56:00,20.3,-4.2,30.08,North,0,0.0,0.0,33,0.00,,CLR,0.00,VWS V13.01,2013-12-11 12:56:00,
2013-12-11 08:01:00,20.5,-4.0,30.08,North,0,0.0,0.0,33,0.00,,CLR,0.00,VWS V13.01,2013-12-11 13:01:00,
2013-12-11 08:06:00,20.8,-3.7,30.08,North,0,0.0,0.0,33,0.00,,CLR,0.00,VWS V13.01,2013-12-11 13:06:00,
2013-12-11 08:11:00,20.8,-3.7,30.08,North,0,0.0,0.0,33,0.00,,CLR,0.00,VWS V13.01,2013-12-11 13:11:00,
2013-12-11 08:16:00,20.7,-3.9,30.08,North,0,0.0,0.0,33,0.00,,CLR,0.00,VWS V13.01,2013-12-11 13:16:00,
2013-12-11 08:21:00,21.0,-3.6,30.08,North,0,0.0,0.0,33,0.00,,CLR,0.00,VWS V13.01,2013-12-11 13:21:00,
2013-12-11 08:26:00,21.2,-3.4,30.08,North,0,0.0,0.0,33,0.00,,CLR,0.00,VWS V13.01,2013-12-11 13:26:00,
2013-12-11 08:31:00,21.4,-3.2,30.08,North,0,0.0,0.0,33,0.00,,CLR,0.00,VWS V13.01,2013-12-11 13:31:00,
2013-12-11 08:36:00,21.7,-2.9,30.08,North,0,0.0,0.0,33,0.00,,CLR,0.00,VWS V13.01,2013-12-11 13:36:00,
2013-12-11 08:41:00,21.9,-2.8,30.08,North,0,0.0,0.0,33,0.00,,CLR,0.00,VWS V13.01,2013-12-11 13:41:00,
2013-12-11 08:46:00,22.3,-2.4,30.08,North,0,0.0,0.0,33,0.00,,CLR,0.00,VWS V13.01,2013-12-11 13:46:00,
2013-12-11 08:51:00,22.6,-2.1,30.08,North,0,0.0,0.0,33,0.00,,CLR,0.00,VWS V13.01,2013-12-11 13:51:00,
2013-12-11 08:56:00,23.2,-1.6,30.11,North,0,0.0,0.0,33,0.00,,CLR,0.00,VWS V13.01,2013-12-11 13:56:00,
2013-12-11 09:01:00,23.9,-1.0,30.11,North,0,0.0,0.0,33,0.00,,CLR,0.00,VWS V13.01,2013-12-11 14:01:00,
2013-12-11 09:06:00,24.4,-0.5,30.11,North,0,0.0,0.0,33,0.00,,CLR,0.00,VWS V13.01,2013-12-11 14:06:00,
2013-12-11 09:11:00,24.8,-0.2,30.11,North,0,0.0,0.0,33,0.00,,CLR,0.00,VWS V13.01,2013-12-11 14:11:00,
2013-12-11 09:16:00,25.0,-0.7,30.11,North,0,0.0,0.0,32,0.00,,CLR,0.00,VWS V13.01,2013-12-11 14:16:00,
2013-12-11 09:21:00,25.3,-0.4,30.11,North,0,0.0,0.0,32,0.00,,CLR,0.00,VWS V13.01,2013-12-11 14:21:00,
2013-12-11 09:26:00,25.7,-0.1,30.11,North,0,0.0,0.0,32,0.00,,CLR,0.00,VWS V13.01,2013-12-11 14:26:00,
2013-12-11 09:31:00,25.7,-0.1,30.11,North,0,0.0,0.0,32,0.00,,CLR,0.00,VWS V13.01,2013-12-11 14:31:00,
2013-12-11 09:36:00,26.1,0.2,30.11,North,0,0.0,0.0,32,0.00,,CLR,0.00,VWS V13.01,2013-12-11 14:36:00,
2013-12-11 09:41:00,26.4,0.6,30.11,North,0,0.0,0.0,32,0.00,,CLR,0.00,VWS V13.01,2013-12-11 14:41:00,
2013-12-11 09:46:00,26.8,0.2,30.11,North,0,0.0,0.0,31,0.00,,CLR,0.00,VWS V13.01,2013-12-11 14:46:00,
2013-12-11 09:51:00,27.0,0.4,30.11,North,0,0.0,0.0,31,0.00,,CLR,0.00,VWS V13.01,2013-12-11 14:51:00,
2013-12-11 09:56:00,27.3,0.7,30.11,North,0,0.0,0.0,31,0.00,,CLR,0.00,VWS V13.01,2013-12-11 14:56:00,
2013-12-11 10:01:00,27.7,1.0,30.11,North,0,0.0,0.0,31,0.00,,CLR,0.00,VWS V13.01,2013-12-11 15:01:00,
2013-12-11 10:06:00,28.0,1.3,30.11,North,0,0.0,0.0,31,0.00,,CLR,0.00,VWS V13.01,2013-12-11 15:06:00,
2013-12-11 10:11:00,28.2,1.5,30.11,North,0,0.0,0.0,31,0.00,,CLR,0.00,VWS V13.01,2013-12-11 15:11:00,
2013-12-11 10:16:00,28.8,1.2,30.11,North,0,0.0,0.0,30,0.00,,CLR,0.00,VWS V13.01,2013-12-11 15:16:00,
2013-12-11 10:21:00,28.6,1.1,30.11,North,0,0.0,0.0,30,0.00,,CLR,0.00,VWS V13.01,2013-12-11 15:21:00,
2013-12-11 10:26:00,28.8,1.2,30.08,North,0,0.0,0.0,30,0.00,,CLR,0.00,VWS V13.01,2013-12-11 15:26:00,
2013-12-11 10:31:00,29.1,0.1,30.08,North,0,0.0,0.0,28,0.00,,CLR,0.00,VWS V13.01,2013-12-11 15:31:00,
2013-12-11 10:36:00,29.3,0.2,30.08,North,0,0.0,0.0,28,0.00,,CLR,0.00,VWS V13.01,2013-12-11 15:36:00,
2013-12-11 10:41:00,29.3,0.2,30.08,North,0,0.0,0.0,28,0.00,,CLR,0.00,VWS V13.01,2013-12-11 15:41:00,
2013-12-11 10:46:00,29.5,0.4,30.08,North,0,0.0,0.0,28,0.00,,CLR,0.00,VWS V13.01,2013-12-11 15:46:00,
2013-12-11 10:51:00,29.5,0.4,30.08,North,0,0.0,0.0,28,0.00,,CLR,0.00,VWS V13.01,2013-12-11 15:51:00,
2013-12-11 10:56:00,29.5,0.4,30.08,North,0,0.0,0.0,28,0.00,,CLR,0.00,VWS V13.01,2013-12-11 15:56:00,
2013-12-11 11:01:00,29.5,-2.0,30.08,North,0,0.0,0.0,25,0.00,,CLR,0.00,VWS V13.01,2013-12-11 16:01:00,
2013-12-11 11:06:00,29.3,-2.2,30.08,North,0,0.0,0.0,25,0.00,,CLR,0.00,VWS V13.01,2013-12-11 16:06:00,
2013-12-11 11:11:00,29.5,-2.0,30.08,North,0,0.0,0.0,25,0.00,,CLR,0.00,VWS V13.01,2013-12-11 16:11:00,
2013-12-11 11:16:00,29.7,0.6,30.08,North,0,0.0,0.0,28,0.00,,CLR,0.00,VWS V13.01,2013-12-11 16:16:00,
2013-12-11 11:21:00,29.5,-2.0,30.08,North,0,0.0,0.0,25,0.00,,CLR,0.00,VWS V13.01,2013-12-11 16:21:00,
2013-12-11 11:26:00,30.0,0.9,30.08,North,0,0.0,0.0,28,0.00,,CLR,0.00,VWS V13.01,2013-12-11 16:26:00,
2013-12-11 11:31:00,29.5,0.4,30.08,North,0,0.0,0.0,28,0.00,,CLR,0.00,VWS V13.01,2013-12-11 16:31:00,
2013-12-11 11:36:00,29.3,0.2,30.08,North,0,0.0,0.0,28,0.00,,CLR,0.00,VWS V13.01,2013-12-11 16:36:00,
2013-12-11 11:41:00,29.1,0.1,30.05,North,0,0.0,0.0,28,0.00,,CLR,0.00,VWS V13.01,2013-12-11 16:41:00,
2013-12-11 11:46:00,29.1,0.1,30.05,North,0,0.0,0.0,28,0.00,,CLR,0.00,VWS V13.01,2013-12-11 16:46:00,
2013-12-11 11:51:00,28.9,-0.1,30.05,North,0,0.0,0.0,28,0.00,,CLR,0.00,VWS V13.01,2013-12-11 16:51:00,
2013-12-11 11:56:00,28.9,-0.1,30.05,North,0,0.0,0.0,28,0.00,,CLR,0.00,VWS V13.01,2013-12-11 16:56:00,
2013-12-11 12:01:00,29.1,0.1,30.05,North,0,0.0,0.0,28,0.00,,FEW055,0.00,VWS V13.01,2013-12-11 17:01:00,
2013-12-11 12:06:00,29.7,0.6,30.05,North,0,0.0,0.0,28,0.00,,FEW055,0.00,VWS V13.01,2013-12-11 17:06:00,
2013-12-11 12:11:00,29.8,0.7,30.05,North,0,0.0,0.0,28,0.00,,FEW055,0.00,VWS V13.01,2013-12-11 17:11:00,
2013-12-11 12:16:00,30.0,0.9,30.05,North,0,0.0,0.0,28,0.00,,FEW055,0.00,VWS V13.01,2013-12-11 17:16:00,
2013-12-11 12:21:00,29.7,0.6,30.05,North,0,0.0,0.0,28,0.00,,FEW055,0.00,VWS V13.01,2013-12-11 17:21:00,
2013-12-11 12:26:00,29.3,0.2,30.05,North,0,0.0,0.0,28,0.00,,FEW055,0.00,VWS V13.01,2013-12-11 17:26:00,
2013-12-11 12:31:00,28.9,-0.1,30.05,North,0,0.0,0.0,28,0.00,,FEW055,0.00,VWS V13.01,2013-12-11 17:31:00,
2013-12-11 12:36:00,28.6,-0.4,30.05,North,0,0.0,0.0,28,0.00,,FEW055,0.00,VWS V13.01,2013-12-11 17:36:00,
2013-12-11 12:41:00,28.2,-0.7,30.05,North,0,0.0,0.0,28,0.00,,SCT050,0.00,VWS V13.01,2013-12-11 17:41:00,
2013-12-11 12:46:00,27.9,-1.0,30.05,North,0,0.0,0.0,28,0.00,,SCT050,0.00,VWS V13.01,2013-12-11 17:46:00,
2013-12-11 12:51:00,27.9,-1.0,30.05,North,0,0.0,0.0,28,0.00,,SCT050,0.00,VWS V13.01,2013-12-11 17:51:00,
2013-12-11 12:56:00,28.0,-0.9,30.05,North,0,0.0,0.0,28,0.00,,SCT050,0.00,VWS V13.01,2013-12-11 17:56:00,
2013-12-11 13:01:00,28.6,-0.4,30.05,North,0,0.0,0.0,28,0.00,,BKN050,0.00,VWS V13.01,2013-12-11 18:01:00,
2013-12-11 13:06:00,28.4,-0.5,30.05,North,0,0.0,0.0,28,0.00,,BKN050,0.00,VWS V13.01,2013-12-11 18:06:00,
2013-12-11 13:11:00,28.2,-0.7,30.05,North,0,0.0,0.0,28,0.00,,BKN050,0.00,VWS V13.01,2013-12-11 18:11:00,
2013-12-11 13:16:00,28.2,-0.7,30.05,North,0,0.0,0.0,28,0.00,,BKN050,0.00,VWS V13.01,2013-12-11 18:16:00,
2013-12-11 13:21:00,28.0,-0.9,30.05,North,0,0.0,0.0,28,0.00,,BKN050,0.00,VWS V13.01,2013-12-11 18:21:00,
2013-12-11 13:26:00,28.2,-0.7,30.05,North,0,0.0,0.0,28,0.00,,BKN050,0.00,VWS V13.01,2013-12-11 18:26:00,
2013-12-11 13:31:00,28.4,-0.5,30.05,North,0,0.0,0.0,28,0.00,,BKN050,0.00,VWS V13.01,2013-12-11 18:31:00,
2013-12-11 13:36:00,28.4,-0.5,30.05,North,0,0.0,0.0,28,0.00,,BKN050,0.00,VWS V13.01,2013-12-11 18:36:00,
2013-12-11 13:41:00,28.6,-0.4,30.05,North,0,0.0,0.0,28,0.00,,OVC050,0.00,VWS V13.01,2013-12-11 18:41:00,
2013-12-11 13:46:00,28.6,-0.4,30.05,North,0,0.0,0.0,28,0.00,,OVC050,0.00,VWS V13.01,2013-12-11 18:46:00,
2013-12-11 13:51:00,28.2,-0.7,30.05,North,0,0.0,0.0,28,0.00,,OVC050,0.00,VWS V13.01,2013-12-11 18:51:00,
2013-12-11 13:56:00,27.9,-1.0,30.05,North,0,0.0,0.0,28,0.00,,OVC050,0.00,VWS V13.01,2013-12-11 18:56:00,
2013-12-11 14:01:00,28.0,-0.9,30.05,North,0,0.0,0.0,28,0.00,,OVC060,0.00,VWS V13.01,2013-12-11 19:01:00,
2013-12-11 14:06:00,27.9,-1.0,30.05,North,0,0.0,0.0,28,0.00,,OVC060,0.00,VWS V13.01,2013-12-11 19:06:00,
2013-12-11 14:11:00,27.9,-1.0,30.05,North,0,0.0,0.0,28,0.00,,OVC060,0.00,VWS V13.01,2013-12-11 19:11:00,
2013-12-11 14:16:00,27.7,-1.2,30.05,North,0,0.0,0.0,28,0.00,,OVC060,0.00,VWS V13.01,2013-12-11 19:16:00,
2013-12-11 14:21:00,27.7,-1.2,30.05,North,0,0.0,0.0,28,0.00,,OVC060,0.00,VWS V13.01,2013-12-11 19:21:00,
2013-12-11 14:26:00,27.5,-1.3,30.05,North,0,0.0,0.0,28,0.00,,OVC060,0.00,VWS V13.01,2013-12-11 19:26:00,
2013-12-11 14:31:00,27.3,-1.5,30.05,North,0,0.0,0.0,28,0.00,,OVC060,0.00,VWS V13.01,2013-12-11 19:31:00,
2013-12-11 14:36:00,27.1,-1.6,30.05,North,0,0.0,0.0,28,0.00,,OVC060,0.00,VWS V13.01,2013-12-11 19:36:00,
2013-12-11 14:41:00,27.1,-1.6,30.05,North,0,0.0,0.0,28,0.00,,OVC060,0.00,VWS V13.01,2013-12-11 19:41:00,
2013-12-11 14:46:00,27.1,-1.6,30.05,North,0,0.0,0.0,28,0.00,,OVC060,0.00,VWS V13.01,2013-12-11 19:46:00,
2013-12-11 14:51:00,27.3,0.7,30.05,North,0,0.0,0.0,31,0.00,,OVC060,0.00,VWS V13.01,2013-12-11 19:51:00,
2013-12-11 14:56:00,27.1,-1.6,30.05,North,0,0.0,0.0,28,0.00,,OVC060,0.00,VWS V13.01,2013-12-11 19:56:00,
2013-12-11 15:01:00,27.0,0.4,30.05,North,0,0.0,0.0,31,0.00,,BKN060,0.00,VWS V13.01,2013-12-11 20:01:00,
2013-12-11 15:06:00,26.8,0.2,30.05,North,0,0.0,0.0,31,0.00,,BKN060,0.00,VWS V13.01,2013-12-11 20:06:00,
2013-12-11 15:11:00,27.0,0.4,30.05,North,0,0.0,0.0,31,0.00,,BKN060,0.00,VWS V13.01,2013-12-11 20:11:00,
2013-12-11 15:16:00,27.3,0.7,30.05,North,0,0.0,0.0,31,0.00,,BKN060,0.00,VWS V13.01,2013-12-11 20:16:00,
2013-12-11 15:21:00,27.7,1.0,30.05,North,0,0.0,0.0,31,0.00,,BKN060,0.00,VWS V13.01,2013-12-11 20:21:00,
2013-12-11 15:26:00,27.7,1.0,30.05,North,0,0.0,0.0,31,0.00,,BKN060,0.00,VWS V13.01,2013-12-11 20:26:00,
2013-12-11 15:31:00,27.7,1.0,30.05,North,0,0.0,0.0,31,0.00,,BKN060,0.00,VWS V13.01,2013-12-11 20:31:00,
2013-12-11 15:36:00,27.7,1.0,30.05,North,0,0.0,0.0,31,0.00,,BKN060,0.00,VWS V13.01,2013-12-11 20:36:00,
2013-12-11 15:41:00,27.7,1.0,30.05,North,0,0.0,0.0,31,0.00,,SCT050,0.00,VWS V13.01,2013-12-11 20:41:00,
2013-12-11 15:46:00,27.1,0.5,30.05,North,0,0.0,0.0,31,0.00,,SCT050,0.00,VWS V13.01,2013-12-11 20:46:00,
2013-12-11 15:51:00,27.0,0.4,30.05,North,0,0.0,0.0,31,0.00,,SCT050,0.00,VWS V13.01,2013-12-11 20:51:00,
2013-12-11 15:56:00,26.6,0.1,30.05,North,0,0.0,0.0,31,0.00,,SCT050,0.00,VWS V13.01,2013-12-11 20:56:00,
2013-12-11 16:01:00,26.4,-0.1,30.05,North,0,0.0,0.0,31,0.00,,SCT060,0.00,VWS V13.01,2013-12-11 21:01:00,
2013-12-11 16:06:00,26.2,-0.3,30.05,North,0,0.0,0.0,31,0.00,,SCT060,0.00,VWS V13.01,2013-12-11 21:06:00,
2013-12-11 16:11:00,26.2,-0.3,30.05,North,0,0.0,0.0,31,0.00,,SCT060,0.00,VWS V13.01,2013-12-11 21:11:00,
2013-12-11 16:16:00,26.1,-0.4,30.05,North,0,0.0,0.0,31,0.00,,SCT060,0.00,VWS V13.01,2013-12-11 21:16:00,
2013-12-11 16:21:00,25.7,-0.7,30.05,North,0,0.0,0.0,31,0.00,,SCT060,0.00,VWS V13.01,2013-12-11 21:21:00,
2013-12-11 16:26:00,25.3,-1.1,30.05,North,0,0.0,0.0,31,0.00,,SCT060,0.00,VWS V13.01,2013-12-11 21:26:00,
2013-12-11 16:31:00,25.3,-1.1,30.05,North,0,0.0,0.0,31,0.00,,SCT060,0.00,VWS V13.01,2013-12-11 21:31:00,
2013-12-11 16:36:00,25.3,-1.1,30.05,North,0,0.0,0.0,31,0.00,,SCT060,0.00,VWS V13.01,2013-12-11 21:36:00,
2013-12-11 16:41:00,25.2,-1.2,30.05,North,0,0.0,0.0,31,0.00,,SCT060,0.00,VWS V13.01,2013-12-11 21:41:00,
2013-12-11 16:46:00,24.8,-0.9,30.05,North,0,0.0,0.0,32,0.00,,SCT060,0.00,VWS V13.01,2013-12-11 21:46:00,
2013-12-11 16:51:00,24.6,-1.0,30.05,North,0,0.0,0.0,32,0.00,,SCT060,0.00,VWS V13.01,2013-12-11 21:51:00,
2013-12-11 16:56:00,24.4,-1.2,30.05,North,0,0.0,0.0,32,0.00,,SCT060,0.00,VWS V13.01,2013-12-11 21:56:00,
2013-12-11 17:01:00,24.3,-1.3,30.05,North,0,0.0,0.0,32,0.00,,SCT050,0.00,VWS V13.01,2013-12-11 22:01:00,
2013-12-11 17:06:00,24.1,-1.5,30.05,North,0,0.0,0.0,32,0.00,,SCT050,0.00,VWS V13.01,2013-12-11 22:06:00,
2013-12-11 17:11:00,23.9,-1.7,30.05,North,0,0.0,0.0,32,0.00,,SCT050,0.00,VWS V13.01,2013-12-11 22:11:00,
2013-12-11 17:16:00,23.9,-1.7,30.05,North,0,0.0,0.0,32,0.00,,SCT050,0.00,VWS V13.01,2013-12-11 22:16:00,
2013-12-11 17:21:00,23.9,-1.7,30.05,North,0,0.0,0.0,32,0.00,,SCT050,0.00,VWS V13.01,2013-12-11 22:21:00,
2013-12-11 17:26:00,23.9,-1.7,30.05,North,0,0.0,0.0,32,0.00,,SCT050,0.00,VWS V13.01,2013-12-11 22:26:00,
2013-12-11 17:31:00,24.1,-1.5,30.05,North,0,0.0,0.0,32,0.00,,SCT050,0.00,VWS V13.01,2013-12-11 22:31:00,
2013-12-11 17:36:00,23.9,-1.7,30.05,North,0,0.0,0.0,32,0.00,,SCT050,0.00,VWS V13.01,2013-12-11 22:36:00,
2013-12-11 17:41:00,24.3,-1.3,30.05,North,0,0.0,0.0,32,0.00,,CLR,0.00,VWS V13.01,2013-12-11 22:41:00,
2013-12-11 17:46:00,24.4,-1.2,30.05,North,0,0.0,0.0,32,0.00,,CLR,0.00,VWS V13.01,2013-12-11 22:46:00,
2013-12-11 17:51:00,24.3,-1.3,30.05,North,0,0.0,0.0,32,0.00,,CLR,0.00,VWS V13.01,2013-12-11 22:51:00,
2013-12-11 17:56:00,23.9,-1.7,30.05,North,0,0.0,0.0,32,0.00,,CLR,0.00,VWS V13.01,2013-12-11 22:56:00,
2013-12-11 18:01:00,23.7,-1.8,30.05,North,0,0.0,0.0,32,0.00,,FEW050,0.00,VWS V13.01,2013-12-11 23:01:00,
2013-12-11 18:06:00,23.5,-2.0,30.05,North,0,0.0,0.0,32,0.00,,FEW050,0.00,VWS V13.01,2013-12-11 23:06:00,
2013-12-11 18:11:00,23.5,-2.0,30.05,North,0,0.0,0.0,32,0.00,,FEW050,0.00,VWS V13.01,2013-12-11 23:11:00,
2013-12-11 18:16:00,23.5,-2.0,30.05,North,0,0.0,0.0,32,0.00,,FEW050,0.00,VWS V13.01,2013-12-11 23:16:00,
2013-12-11 18:21:00,23.5,-2.0,30.05,North,0,0.0,0.0,32,0.00,,FEW050,0.00,VWS V13.01,2013-12-11 23:21:00,
2013-12-11 18:26:00,23.5,-2.0,30.05,North,0,0.0,0.0,32,0.00,,FEW050,0.00,VWS V13.01,2013-12-11 23:26:00,
2013-12-11 18:31:00,23.4,-2.1,30.05,North,0,0.0,0.0,32,0.00,,FEW050,0.00,VWS V13.01,2013-12-11 23:31:00,
2013-12-11 18:36:00,23.2,-2.3,30.05,North,0,0.0,0.0,32,0.00,,FEW050,0.00,VWS V13.01,2013-12-11 23:36:00,
2013-12-11 18:41:00,23.0,-2.5,30.05,North,0,0.0,0.0,32,0.00,,CLR,0.00,VWS V13.01,2013-12-11 23:41:00,
2013-12-11 18:46:00,22.8,-2.6,30.05,North,0,0.0,0.0,32,0.00,,CLR,0.00,VWS V13.01,2013-12-11 23:46:00,
2013-12-11 18:51:00,22.6,-2.8,30.05,North,0,0.0,0.0,32,0.00,,CLR,0.00,VWS V13.01,2013-12-11 23:51:00,
2013-12-11 18:56:00,22.5,-2.9,30.05,North,0,0.0,0.0,32,0.00,,CLR,0.00,VWS V13.01,2013-12-11 23:56:00,
2013-12-11 19:01:00,22.3,-3.1,30.05,North,0,0.0,0.0,32,0.00,,FEW048,0.00,VWS V13.01,2013-12-12 00:01:00,
2013-12-11 19:06:00,22.1,-3.2,30.05,North,0,0.0,0.0,32,0.00,,FEW048,0.00,VWS V13.01,2013-12-12 00:06:00,
2013-12-11 19:11:00,21.9,-2.8,30.05,North,0,0.0,0.0,33,0.00,,FEW048,0.00,VWS V13.01,2013-12-12 00:11:00,
2013-12-11 19:16:00,21.6,-3.1,30.05,North,0,0.0,0.0,33,0.00,,FEW048,0.00,VWS V13.01,2013-12-12 00:16:00,
2013-12-11 19:21:00,21.6,-3.1,30.05,North,0,0.0,0.0,33,0.00,,FEW048,0.00,VWS V13.01,2013-12-12 00:21:00,
2013-12-11 19:26:00,21.9,-2.8,30.05,North,0,0.0,0.0,33,0.00,,FEW048,0.00,VWS V13.01,2013-12-12 00:26:00,
2013-12-11 19:31:00,21.9,-2.8,30.05,North,0,0.0,0.0,33,0.00,,FEW048,0.00,VWS V13.01,2013-12-12 00:31:00,
2013-12-11 19:36:00,22.1,-2.6,30.05,North,0,0.0,0.0,33,0.00,,FEW048,0.00,VWS V13.01,2013-12-12 00:36:00,
2013-12-11 19:41:00,21.9,-2.8,30.05,North,0,0.0,0.0,33,0.00,,BKN044,0.00,VWS V13.01,2013-12-12 00:41:00,
2013-12-11 19:46:00,21.9,-2.8,30.05,North,0,0.0,0.0,33,0.00,,BKN044,0.00,VWS V13.01,2013-12-12 00:46:00,
2013-12-11 19:51:00,22.3,-2.4,30.05,North,0,0.0,0.0,33,0.00,,BKN044,0.00,VWS V13.01,2013-12-12 00:51:00,
2013-12-11 19:56:00,22.3,-2.4,30.05,North,0,0.0,0.0,33,0.00,,BKN044,0.00,VWS V13.01,2013-12-12 00:56:00,
2013-12-11 20:01:00,22.3,-2.4,30.05,North,0,0.0,0.0,33,0.00,,FEW042,0.00,VWS V13.01,2013-12-12 01:01:00,
2013-12-11 20:06:00,22.1,-2.0,30.05,North,0,0.0,0.0,34,0.00,,FEW042,0.00,VWS V13.01,2013-12-12 01:06:00,
2013-12-11 20:11:00,21.9,-2.1,30.05,North,0,0.0,0.0,34,0.00,,FEW042,0.00,VWS V13.01,2013-12-12 01:11:00,
2013-12-11 20:16:00,21.7,-2.3,30.05,North,0,0.0,0.0,34,0.00,,FEW042,0.00,VWS V13.01,2013-12-12 01:16:00,
2013-12-11 20:21:00,21.7,-1.7,30.05,North,0,0.0,0.0,35,0.00,,FEW042,0.00,VWS V13.01,2013-12-12 01:21:00,
2013-12-11 20:26:00,21.9,-0.9,30.05,North,0,0.0,0.0,36,0.00,,FEW042,0.00,VWS V13.01,2013-12-12 01:26:00,
2013-12-11 20:31:00,21.9,-0.9,30.05,North,0,0.0,0.0,36,0.00,,FEW042,0.00,VWS V13.01,2013-12-12 01:31:00,
2013-12-11 20:36:00,21.9,-0.3,30.05,North,0,0.0,0.0,37,0.00,,FEW042,0.00,VWS V13.01,2013-12-12 01:36:00,
2013-12-11 20:41:00,22.3,-0.6,30.05,North,0,0.0,0.0,36,0.00,,CLR,0.00,VWS V13.01,2013-12-12 01:41:00,
2013-12-11 20:46:00,22.5,-0.4,30.05,North,0,0.0,0.0,36,0.00,,CLR,0.00,VWS V13.01,2013-12-12 01:46:00,
2013-12-11 20:51:00,22.6,0.3,30.05,North,0,0.0,0.0,37,0.00,,CLR,0.00,VWS V13.01,2013-12-12 01:51:00,
2013-12-11 20:56:00,22.8,0.5,30.05,North,0,0.0,0.0,37,0.00,,CLR,0.00,VWS V13.01,2013-12-12 01:56:00,
2013-12-11 21:01:00,22.8,0.5,30.05,North,0,0.0,0.0,37,0.00,,SCT040,0.00,VWS V13.01,2013-12-12 02:01:00,
2013-12-11 21:06:00,22.8,0.5,30.05,North,0,0.0,0.0,37,0.00,,SCT040,0.00,VWS V13.01,2013-12-12 02:06:00,
2013-12-11 21:11:00,22.8,1.0,30.05,North,0,0.0,0.0,38,0.00,,SCT040,0.00,VWS V13.01,2013-12-12 02:11:00,
2013-12-11 21:16:00,22.8,1.6,30.05,North,0,0.0,0.0,39,0.00,,SCT040,0.00,VWS V13.01,2013-12-12 02:16:00,
2013-12-11 21:21:00,22.6,1.4,30.05,North,0,0.0,0.0,39,0.00,,SCT040,0.00,VWS V13.01,2013-12-12 02:21:00,
2013-12-11 21:26:00,22.6,1.4,30.05,North,0,0.0,0.0,39,0.00,,SCT040,0.00,VWS V13.01,2013-12-12 02:26:00,
2013-12-11 21:31:00,22.6,2.0,30.05,North,0,0.0,0.0,40,0.00,,SCT040,0.00,VWS V13.01,2013-12-12 02:31:00,
2013-12-11 21:36:00,22.6,2.0,30.05,North,0,0.0,0.0,40,0.00,,SCT040,0.00,VWS V13.01,2013-12-12 02:36:00,
2013-12-11 21:41:00,22.5,2.3,30.05,North,0,0.0,0.0,41,0.00,,OVC032,0.00,VWS V13.01,2013-12-12 02:41:00,
2013-12-11 21:46:00,22.5,2.3,30.05,North,0,0.0,0.0,41,0.00,,OVC032,0.00,VWS V13.01,2013-12-12 02:46:00,
2013-12-11 21:51:00,22.3,2.7,30.05,North,0,0.0,0.0,42,0.00,,OVC032,0.00,VWS V13.01,2013-12-12 02:51:00,
2013-12-11 21:56:00,22.1,2.5,30.05,North,0,0.0,0.0,42,0.00,,OVC032,0.00,VWS V13.01,2013-12-12 02:56:00,
2013-12-11 22:01:00,22.1,2.5,30.05,North,0,0.0,0.0,42,0.00,,SCT023,0.00,VWS V13.01,2013-12-12 03:01:00,
2013-12-11 22:06:00,22.1,3.0,30.05,North,0,0.0,0.0,43,0.00,,SCT023,0.00,VWS V13.01,2013-12-12 03:06:00,
2013-12-11 22:11:00,21.9,3.4,30.05,North,0,0.0,0.0,44,0.00,,SCT023,0.00,VWS V13.01,2013-12-12 03:11:00,
2013-12-11 22:16:00,21.9,3.4,30.05,North,0,0.0,0.0,44,0.00,,SCT023,0.00,VWS V13.01,2013-12-12 03:16:00,
2013-12-11 22:21:00,21.9,3.4,30.05,North,0,0.0,0.0,44,0.00,,SCT023,0.00,VWS V13.01,2013-12-12 03:21:00,
2013-12-11 22:26:00,21.9,3.4,30.05,North,0,0.0,0.0,44,0.00,,SCT023,0.00,VWS V13.01,2013-12-12 03:26:00,
2013-12-11 22:31:00,21.9,3.4,30.05,North,0,0.0,0.0,44,0.00,,SCT023,0.00,VWS V13.01,2013-12-12 03:31:00,
2013-12-11 22:36:00,21.9,3.4,30.05,North,0,0.0,0.0,44,0.00,,SCT023,0.00,VWS V13.01,2013-12-12 03:36:00,
2013-12-11 22:41:00,21.9,3.4,30.05,North,0,0.0,0.0,44,0.00,,OVC032,0.00,VWS V13.01,2013-12-12 03:41:00,
2013-12-11 22:46:00,21.9,3.4,30.05,North,0,0.0,0.0,44,0.00,,OVC032,0.00,VWS V13.01,2013-12-12 03:46:00,
2013-12-11 22:51:00,21.7,3.2,30.05,North,0,0.0,0.0,44,0.00,,OVC032,0.00,VWS V13.01,2013-12-12 03:51:00,
2013-12-11 22:56:00,21.6,3.0,30.05,North,0,0.0,0.0,44,0.00,,OVC032,0.00,VWS V13.01,2013-12-12 03:56:00,
2013-12-11 23:01:00,21.6,3.5,30.05,North,0,0.0,0.0,45,0.00,,BKN032,0.00,VWS V13.01,2013-12-12 04:01:00,
2013-12-11 23:06:00,21.7,3.7,30.05,North,0,0.0,0.0,45,0.00,,BKN032,0.00,VWS V13.01,2013-12-12 04:06:00,
2013-12-11 23:11:00,21.7,3.7,30.05,North,0,0.0,0.0,45,0.00,,BKN032,0.00,VWS V13.01,2013-12-12 04:11:00,
2013-12-11 23:16:00,21.7,3.7,30.05,North,0,0.0,0.0,45,0.00,,BKN032,0.00,VWS V13.01,2013-12-12 04:16:00,
2013-12-11 23:21:00,21.7,3.7,30.05,North,0,0.0,0.0,45,0.00,,BKN032,0.00,VWS V13.01,2013-12-12 04:21:00,
2013-12-11 23:26:00,21.7,3.7,30.05,North,0,0.0,0.0,45,0.00,,BKN032,0.00,VWS V13.01,2013-12-12 04:26:00,
2013-12-11 23:31:00,21.6,3.5,30.05,North,0,0.0,0.0,45,0.00,,BKN032,0.00,VWS V13.01,2013-12-12 04:31:00,
2013-12-11 23:36:00,21.6,4.0,30.05,North,0,0.0,0.0,46,0.00,,BKN032,0.00,VWS V13.01,2013-12-12 04:36:00,
2013-12-11 23:41:00,21.4,3.8,30.08,North,0,0.0,0.0,46,0.00,,FEW027,0.00,VWS V13.01,2013-12-12 04:41:00,
2013-12-11 23:46:00,21.4,3.8,30.08,North,0,0.0,0.0,46,0.00,,FEW027,0.00,VWS V13.01,2013-12-12 04:46:00,
2013-12-11 23:51:00,21.4,3.8,30.08,North,0,0.0,0.0,46,0.00,,FEW027,0.00,VWS V13.01,2013-12-12 04:51:00,
2013-12-11 23:56:00,21.4,3.8,30.08,North,0,0.0,0.0,46,0.00,,FEW027,0.00,VWS V13.01,2013-12-12 04:56:00,